sensor_id;sensor_type;location;lat;lon;timestamp;pressure;altitude;pressure_sealevel;temperature;humidity
6514;BME280;3290;47.716;9.070;2023-02-22T00:00:18;96862.34;;;5.90;100.00
6514;BME280;3290;47.716;9.070;2023-02-22T00:02:50;96861.00;;;5.94;100.00
6514;BME280;3290;47.716;9.070;2023-02-22T00:05:18;96859.53;;;5.85;100.00
6514;BME280;3290;47.716;9.070;2023-02-22T00:07:49;96859.75;;;5.90;100.00
6514;BME280;3290;47.716;9.070;2023-02-22T00:10:15;96864.16;;;5.89;100.00
6514;BME280;3290;47.716;9.070;2023-02-22T00:12:46;96864.94;;;5.90;100.00
6514;BME280;3290;47.716;9.070;2023-02-22T00:15:12;96866.63;;;5.76;100.00
6514;BME280;3290;47.716;9.070;2023-02-22T00:17:38;96869.28;;;5.62;100.00
6514;BME280;3290;47.716;9.070;2023-02-22T00:20:04;96867.22;;;5.57;100.00
6514;BME280;3290;47.716;9.070;2023-02-22T00:22:31;96867.25;;;5.43;100.00
6514;BME280;3290;47.716;9.070;2023-02-22T00:24:56;96869.75;;;5.16;100.00
6514;BME280;3290;47.716;9.070;2023-02-22T00:27:22;96863.25;;;5.06;100.00
6514;BME280;3290;47.716;9.070;2023-02-22T00:29:47;96863.38;;;4.83;100.00
6514;BME280;3290;47.716;9.070;2023-02-22T00:32:13;96862.34;;;4.84;100.00
6514;BME280;3290;47.716;9.070;2023-02-22T00:34:39;96870.75;;;4.86;100.00
6514;BME280;3290;47.716;9.070;2023-02-22T00:37:05;96867.03;;;4.89;100.00
6514;BME280;3290;47.716;9.070;2023-02-22T00:39:30;96860.09;;;5.10;100.00
6514;BME280;3290;47.716;9.070;2023-02-22T00:41:56;96865.16;;;5.32;100.00
6514;BME280;3290;47.716;9.070;2023-02-22T00:44:21;96865.53;;;5.50;100.00
6514;BME280;3290;47.716;9.070;2023-02-22T00:46:47;96868.63;;;5.39;100.00
6514;BME280;3290;47.716;9.070;2023-02-22T00:49:16;96866.69;;;5.27;100.00
6514;BME280;3290;47.716;9.070;2023-02-22T00:51:42;96858.03;;;5.20;100.00
6514;BME280;3290;47.716;9.070;2023-02-22T00:54:07;96868.09;;;5.29;100.00
6514;BME280;3290;47.716;9.070;2023-02-22T00:56:33;96861.06;;;5.23;100.00
6514;BME280;3290;47.716;9.070;2023-02-22T00:58:59;96863.00;;;5.01;100.00
6514;BME280;3290;47.716;9.070;2023-02-22T01:01:26;96855.47;;;5.06;100.00
6514;BME280;3290;47.716;9.070;2023-02-22T01:03:51;96864.28;;;4.76;100.00
6514;BME280;3290;47.716;9.070;2023-02-22T01:06:17;96862.19;;;4.86;100.00
6514;BME280;3290;47.716;9.070;2023-02-22T01:08:44;96859.53;;;4.79;100.00
6514;BME280;3290;47.716;9.070;2023-02-22T01:11:10;96865.88;;;4.77;100.00
6514;BME280;3290;47.716;9.070;2023-02-22T01:13:35;96856.66;;;4.75;100.00
6514;BME280;3290;47.716;9.070;2023-02-22T01:16:00;96857.38;;;4.69;100.00
6514;BME280;3290;47.716;9.070;2023-02-22T01:18:27;96857.19;;;4.56;100.00
6514;BME280;3290;47.716;9.070;2023-02-22T01:20:52;96857.88;;;4.07;100.00
6514;BME280;3290;47.716;9.070;2023-02-22T01:23:18;96851.44;;;4.17;100.00
6514;BME280;3290;47.716;9.070;2023-02-22T01:25:43;96857.28;;;4.34;100.00
6514;BME280;3290;47.716;9.070;2023-02-22T01:28:09;96847.72;;;4.34;100.00
6514;BME280;3290;47.716;9.070;2023-02-22T01:30:35;96851.00;;;4.42;100.00
6514;BME280;3290;47.716;9.070;2023-02-22T01:33:03;96853.00;;;4.69;100.00
6514;BME280;3290;47.716;9.070;2023-02-22T01:35:32;96849.75;;;4.96;100.00
6514;BME280;3290;47.716;9.070;2023-02-22T01:37:57;96849.22;;;4.86;100.00
6514;BME280;3290;47.716;9.070;2023-02-22T01:40:33;96852.00;;;4.70;100.00
6514;BME280;3290;47.716;9.070;2023-02-22T01:43:02;96851.53;;;4.81;100.00
6514;BME280;3290;47.716;9.070;2023-02-22T01:47:56;96840.38;;;4.80;100.00
6514;BME280;3290;47.716;9.070;2023-02-22T01:50:22;96829.47;;;4.56;100.00
6514;BME280;3290;47.716;9.070;2023-02-22T01:52:48;96840.13;;;4.33;100.00
6514;BME280;3290;47.716;9.070;2023-02-22T01:55:14;96842.25;;;4.43;100.00
6514;BME280;3290;47.716;9.070;2023-02-22T01:57:41;96837.53;;;4.47;100.00
6514;BME280;3290;47.716;9.070;2023-02-22T02:00:10;96832.63;;;4.38;100.00
6514;BME280;3290;47.716;9.070;2023-02-22T02:02:42;96830.38;;;4.35;100.00
6514;BME280;3290;47.716;9.070;2023-02-22T02:05:09;96829.38;;;4.36;100.00
6514;BME280;3290;47.716;9.070;2023-02-22T02:07:36;96833.25;;;4.39;100.00
6514;BME280;3290;47.716;9.070;2023-02-22T02:10:06;96819.19;;;4.48;100.00
6514;BME280;3290;47.716;9.070;2023-02-22T02:12:34;96822.00;;;3.96;100.00
6514;BME280;3290;47.716;9.070;2023-02-22T02:17:48;96814.16;;;4.04;100.00
6514;BME280;3290;47.716;9.070;2023-02-22T02:29:13;96808.28;;;4.10;100.00
6514;BME280;3290;47.716;9.070;2023-02-22T02:39:50;96801.84;;;4.35;100.00
6514;BME280;3290;47.716;9.070;2023-02-22T02:42:22;96806.41;;;4.33;100.00
6514;BME280;3290;47.716;9.070;2023-02-22T02:44:57;96798.97;;;4.30;100.00
6514;BME280;3290;47.716;9.070;2023-02-22T02:47:29;96803.63;;;4.20;100.00
6514;BME280;3290;47.716;9.070;2023-02-22T02:52:32;96799.88;;;4.08;100.00
6514;BME280;3290;47.716;9.070;2023-02-22T02:54:59;96798.59;;;4.04;100.00
6514;BME280;3290;47.716;9.070;2023-02-22T02:57:25;96801.81;;;4.06;100.00
6514;BME280;3290;47.716;9.070;2023-02-22T02:59:52;96811.72;;;3.88;100.00
6514;BME280;3290;47.716;9.070;2023-02-22T03:02:48;96804.50;;;3.98;100.00
6514;BME280;3290;47.716;9.070;2023-02-22T03:05:31;96804.31;;;3.85;100.00
6514;BME280;3290;47.716;9.070;2023-02-22T03:08:08;96806.81;;;3.93;100.00
6514;BME280;3290;47.716;9.070;2023-02-22T03:13:37;96790.81;;;4.04;100.00
6514;BME280;3290;47.716;9.070;2023-02-22T03:19:02;96785.63;;;3.75;100.00
6514;BME280;3290;47.716;9.070;2023-02-22T03:24:33;96789.66;;;3.92;100.00
6514;BME280;3290;47.716;9.070;2023-02-22T03:27:17;96788.56;;;3.87;100.00
6514;BME280;3290;47.716;9.070;2023-02-22T03:29:46;96781.50;;;3.66;100.00
6514;BME280;3290;47.716;9.070;2023-02-22T03:32:19;96785.94;;;3.58;100.00
6514;BME280;3290;47.716;9.070;2023-02-22T03:34:53;96787.56;;;3.37;100.00
6514;BME280;3290;47.716;9.070;2023-02-22T03:37:24;96787.69;;;3.43;100.00
6514;BME280;3290;47.716;9.070;2023-02-22T03:39:53;96784.56;;;3.48;100.00
6514;BME280;3290;47.716;9.070;2023-02-22T03:42:27;96777.72;;;3.69;100.00
6514;BME280;3290;47.716;9.070;2023-02-22T03:44:56;96776.50;;;3.79;100.00
6514;BME280;3290;47.716;9.070;2023-02-22T03:47:29;96775.28;;;3.90;100.00
6514;BME280;3290;47.716;9.070;2023-02-22T03:50:02;96781.50;;;3.66;100.00
6514;BME280;3290;47.716;9.070;2023-02-22T03:52:32;96784.28;;;3.79;100.00
6514;BME280;3290;47.716;9.070;2023-02-22T03:54:59;96784.25;;;3.65;100.00
6514;BME280;3290;47.716;9.070;2023-02-22T03:57:27;96780.25;;;3.77;100.00
6514;BME280;3290;47.716;9.070;2023-02-22T03:59:54;96777.78;;;3.47;100.00
6514;BME280;3290;47.716;9.070;2023-02-22T04:02:20;96777.50;;;3.42;100.00
6514;BME280;3290;47.716;9.070;2023-02-22T04:04:48;96784.69;;;3.32;100.00
6514;BME280;3290;47.716;9.070;2023-02-22T04:07:13;96781.34;;;3.46;100.00
6514;BME280;3290;47.716;9.070;2023-02-22T04:09:39;96778.47;;;3.41;100.00
6514;BME280;3290;47.716;9.070;2023-02-22T04:12:04;96785.75;;;3.59;100.00
6514;BME280;3290;47.716;9.070;2023-02-22T04:14:29;96787.44;;;3.53;100.00
6514;BME280;3290;47.716;9.070;2023-02-22T04:16:55;96782.44;;;3.51;100.00
6514;BME280;3290;47.716;9.070;2023-02-22T04:19:20;96781.81;;;3.63;100.00
6514;BME280;3290;47.716;9.070;2023-02-22T04:21:46;96792.81;;;3.65;100.00
6514;BME280;3290;47.716;9.070;2023-02-22T04:24:12;96785.09;;;3.80;100.00
6514;BME280;3290;47.716;9.070;2023-02-22T04:26:37;96786.81;;;3.51;100.00
6514;BME280;3290;47.716;9.070;2023-02-22T04:29:03;96781.75;;;3.57;100.00
6514;BME280;3290;47.716;9.070;2023-02-22T04:31:29;96785.00;;;3.73;100.00
6514;BME280;3290;47.716;9.070;2023-02-22T04:33:55;96775.41;;;3.74;100.00
6514;BME280;3290;47.716;9.070;2023-02-22T04:36:20;96783.88;;;3.54;100.00
6514;BME280;3290;47.716;9.070;2023-02-22T04:38:46;96784.22;;;3.28;100.00
6514;BME280;3290;47.716;9.070;2023-02-22T04:41:12;96783.31;;;3.44;100.00
6514;BME280;3290;47.716;9.070;2023-02-22T04:43:37;96780.56;;;3.59;100.00
6514;BME280;3290;47.716;9.070;2023-02-22T04:46:03;96778.63;;;3.61;100.00
6514;BME280;3290;47.716;9.070;2023-02-22T04:48:28;96790.31;;;3.35;100.00
6514;BME280;3290;47.716;9.070;2023-02-22T04:50:54;96781.94;;;3.33;100.00
6514;BME280;3290;47.716;9.070;2023-02-22T04:53:19;96781.72;;;3.20;100.00
6514;BME280;3290;47.716;9.070;2023-02-22T04:55:45;96777.00;;;3.24;100.00
6514;BME280;3290;47.716;9.070;2023-02-22T04:58:10;96779.91;;;3.43;100.00
6514;BME280;3290;47.716;9.070;2023-02-22T05:00:35;96776.72;;;3.56;100.00
6514;BME280;3290;47.716;9.070;2023-02-22T05:03:01;96784.50;;;3.56;100.00
6514;BME280;3290;47.716;9.070;2023-02-22T05:05:26;96778.03;;;3.52;100.00
6514;BME280;3290;47.716;9.070;2023-02-22T05:07:51;96775.75;;;3.57;100.00
6514;BME280;3290;47.716;9.070;2023-02-22T05:10:18;96778.31;;;3.57;100.00
6514;BME280;3290;47.716;9.070;2023-02-22T05:12:43;96775.06;;;3.62;100.00
6514;BME280;3290;47.716;9.070;2023-02-22T05:15:09;96774.78;;;3.35;100.00
6514;BME280;3290;47.716;9.070;2023-02-22T05:17:35;96776.50;;;3.43;100.00
6514;BME280;3290;47.716;9.070;2023-02-22T05:20:02;96774.75;;;3.43;100.00
6514;BME280;3290;47.716;9.070;2023-02-22T05:22:28;96776.72;;;3.56;100.00
6514;BME280;3290;47.716;9.070;2023-02-22T05:24:54;96773.84;;;3.51;100.00
6514;BME280;3290;47.716;9.070;2023-02-22T05:27:21;96775.50;;;3.66;100.00
6514;BME280;3290;47.716;9.070;2023-02-22T05:29:46;96778.00;;;3.59;100.00
6514;BME280;3290;47.716;9.070;2023-02-22T05:32:11;96775.22;;;3.61;100.00
6514;BME280;3290;47.716;9.070;2023-02-22T05:34:37;96772.59;;;3.47;100.00
6514;BME280;3290;47.716;9.070;2023-02-22T05:37:03;96770.78;;;3.33;100.00
6514;BME280;3290;47.716;9.070;2023-02-22T05:39:29;96773.06;;;3.28;100.00
6514;BME280;3290;47.716;9.070;2023-02-22T05:41:54;96770.34;;;3.44;100.00
6514;BME280;3290;47.716;9.070;2023-02-22T05:44:20;96770.19;;;3.45;100.00
6514;BME280;3290;47.716;9.070;2023-02-22T05:46:45;96768.69;;;3.51;100.00
6514;BME280;3290;47.716;9.070;2023-02-22T05:49:10;96769.34;;;3.67;100.00
6514;BME280;3290;47.716;9.070;2023-02-22T05:51:35;96765.47;;;3.49;100.00
6514;BME280;3290;47.716;9.070;2023-02-22T05:54:01;96771.19;;;3.58;100.00
6514;BME280;3290;47.716;9.070;2023-02-22T05:56:27;96771.19;;;3.58;100.00
6514;BME280;3290;47.716;9.070;2023-02-22T05:58:54;96766.16;;;3.43;100.00
6514;BME280;3290;47.716;9.070;2023-02-22T06:01:20;96772.31;;;3.42;100.00
6514;BME280;3290;47.716;9.070;2023-02-22T06:03:49;96770.03;;;3.47;100.00
6514;BME280;3290;47.716;9.070;2023-02-22T06:06:15;96765.97;;;3.44;100.00
6514;BME280;3290;47.716;9.070;2023-02-22T06:08:41;96758.66;;;3.48;100.00
6514;BME280;3290;47.716;9.070;2023-02-22T06:11:07;96764.94;;;3.67;100.00
6514;BME280;3290;47.716;9.070;2023-02-22T06:13:34;96765.56;;;3.55;100.00
6514;BME280;3290;47.716;9.070;2023-02-22T06:15:59;96758.31;;;3.51;100.00
6514;BME280;3290;47.716;9.070;2023-02-22T06:18:25;96767.34;;;3.55;100.00
6514;BME280;3290;47.716;9.070;2023-02-22T06:20:51;96771.28;;;3.51;100.00
6514;BME280;3290;47.716;9.070;2023-02-22T06:23:16;96772.47;;;3.62;100.00
6514;BME280;3290;47.716;9.070;2023-02-22T06:25:42;96780.19;;;3.48;100.00
6514;BME280;3290;47.716;9.070;2023-02-22T06:28:07;96780.25;;;3.77;100.00
6514;BME280;3290;47.716;9.070;2023-02-22T06:30:33;96784.84;;;3.89;100.00
6514;BME280;3290;47.716;9.070;2023-02-22T06:32:58;96783.50;;;3.93;100.00
6514;BME280;3290;47.716;9.070;2023-02-22T06:35:23;96783.78;;;4.27;100.00
6514;BME280;3290;47.716;9.070;2023-02-22T06:37:49;96784.69;;;4.97;100.00
6514;BME280;3290;47.716;9.070;2023-02-22T06:40:15;96774.44;;;4.75;100.00
6514;BME280;3290;47.716;9.070;2023-02-22T06:42:40;96786.25;;;4.63;100.00
6514;BME280;3290;47.716;9.070;2023-02-22T06:45:06;96792.09;;;4.51;100.00
6514;BME280;3290;47.716;9.070;2023-02-22T06:47:32;96797.47;;;4.35;100.00
6514;BME280;3290;47.716;9.070;2023-02-22T06:49:58;96796.47;;;4.50;100.00
6514;BME280;3290;47.716;9.070;2023-02-22T06:52:25;96802.88;;;4.83;100.00
6514;BME280;3290;47.716;9.070;2023-02-22T06:54:51;96802.44;;;4.79;100.00
6514;BME280;3290;47.716;9.070;2023-02-22T06:57:17;96795.84;;;4.63;100.00
6514;BME280;3290;47.716;9.070;2023-02-22T06:59:43;96794.03;;;4.63;100.00
6514;BME280;3290;47.716;9.070;2023-02-22T07:02:10;96794.66;;;4.65;100.00
6514;BME280;3290;47.716;9.070;2023-02-22T07:04:36;96793.69;;;4.66;100.00
6514;BME280;3290;47.716;9.070;2023-02-22T07:07:01;96796.81;;;4.76;100.00
6514;BME280;3290;47.716;9.070;2023-02-22T07:09:26;96789.75;;;4.56;100.00
6514;BME280;3290;47.716;9.070;2023-02-22T07:11:52;96796.34;;;4.87;100.00
6514;BME280;3290;47.716;9.070;2023-02-22T07:14:17;96792.06;;;5.00;100.00
6514;BME280;3290;47.716;9.070;2023-02-22T07:16:42;96803.06;;;4.81;100.00
6514;BME280;3290;47.716;9.070;2023-02-22T07:19:08;96799.19;;;4.92;100.00
6514;BME280;3290;47.716;9.070;2023-02-22T07:21:33;96807.94;;;4.91;100.00
6514;BME280;3290;47.716;9.070;2023-02-22T07:23:59;96804.94;;;4.73;100.00
6514;BME280;3290;47.716;9.070;2023-02-22T07:26:25;96802.00;;;4.76;100.00
6514;BME280;3290;47.716;9.070;2023-02-22T07:28:50;96803.72;;;4.90;100.00
6514;BME280;3290;47.716;9.070;2023-02-22T07:31:16;96800.91;;;4.85;100.00
6514;BME280;3290;47.716;9.070;2023-02-22T07:33:42;96803.72;;;4.90;100.00
6514;BME280;3290;47.716;9.070;2023-02-22T07:36:08;96801.69;;;4.85;100.00
6514;BME280;3290;47.716;9.070;2023-02-22T07:38:33;96804.78;;;5.10;100.00
6514;BME280;3290;47.716;9.070;2023-02-22T07:40:58;96806.38;;;5.11;100.00
6514;BME280;3290;47.716;9.070;2023-02-22T07:43:28;96804.84;;;5.16;100.00
6514;BME280;3290;47.716;9.070;2023-02-22T07:45:56;96811.78;;;5.30;100.00
6514;BME280;3290;47.716;9.070;2023-02-22T07:48:23;96804.56;;;5.46;100.00
6514;BME280;3290;47.716;9.070;2023-02-22T07:50:49;96801.72;;;5.83;100.00
6514;BME280;3290;47.716;9.070;2023-02-22T07:53:19;96809.94;;;5.86;100.00
6514;BME280;3290;47.716;9.070;2023-02-22T07:55:44;96807.53;;;6.12;100.00
6514;BME280;3290;47.716;9.070;2023-02-22T07:58:14;96814.16;;;6.14;100.00
6514;BME280;3290;47.716;9.070;2023-02-22T08:00:39;96805.84;;;6.25;100.00
6514;BME280;3290;47.716;9.070;2023-02-22T08:03:08;96805.53;;;6.47;100.00
6514;BME280;3290;47.716;9.070;2023-02-22T08:05:35;96802.44;;;6.31;100.00
6514;BME280;3290;47.716;9.070;2023-02-22T08:08:01;96803.00;;;6.20;100.00
6514;BME280;3290;47.716;9.070;2023-02-22T08:10:27;96802.69;;;6.36;100.00
6514;BME280;3290;47.716;9.070;2023-02-22T08:12:54;96801.13;;;6.41;100.00
6514;BME280;3290;47.716;9.070;2023-02-22T08:15:28;96791.00;;;6.53;100.00
6514;BME280;3290;47.716;9.070;2023-02-22T08:17:54;96794.75;;;6.50;100.00
6514;BME280;3290;47.716;9.070;2023-02-22T08:20:20;96790.16;;;6.86;100.00
6514;BME280;3290;47.716;9.070;2023-02-22T08:22:46;96792.75;;;6.86;99.32
6514;BME280;3290;47.716;9.070;2023-02-22T08:25:13;96790.44;;;6.64;99.60
6514;BME280;3290;47.716;9.070;2023-02-22T08:27:40;96792.94;;;6.84;99.77
6514;BME280;3290;47.716;9.070;2023-02-22T08:30:06;96790.16;;;6.92;99.30
6514;BME280;3290;47.716;9.070;2023-02-22T08:32:32;96787.78;;;6.97;98.55
6514;BME280;3290;47.716;9.070;2023-02-22T08:34:57;96793.00;;;7.10;99.64
6514;BME280;3290;47.716;9.070;2023-02-22T08:37:22;96787.84;;;7.29;98.35
6514;BME280;3290;47.716;9.070;2023-02-22T08:39:48;96786.66;;;7.32;98.45
6514;BME280;3290;47.716;9.070;2023-02-22T08:42:13;96784.31;;;7.82;94.58
6514;BME280;3290;47.716;9.070;2023-02-22T08:44:39;96792.72;;;7.52;95.06
6514;BME280;3290;47.716;9.070;2023-02-22T08:47:05;96783.94;;;7.72;95.62
6514;BME280;3290;47.716;9.070;2023-02-22T08:49:31;96779.69;;;7.84;96.09
6514;BME280;3290;47.716;9.070;2023-02-22T08:51:56;96784.94;;;7.97;94.24
6514;BME280;3290;47.716;9.070;2023-02-22T08:54:22;96777.50;;;8.00;93.93
6514;BME280;3290;47.716;9.070;2023-02-22T08:56:48;96777.50;;;7.94;94.86
6514;BME280;3290;47.716;9.070;2023-02-22T08:59:14;96775.59;;;8.65;92.00
6514;BME280;3290;47.716;9.070;2023-02-22T09:01:39;96773.38;;;8.68;90.29
6514;BME280;3290;47.716;9.070;2023-02-22T09:04:05;96771.97;;;9.16;87.27
6514;BME280;3290;47.716;9.070;2023-02-22T09:06:30;96777.72;;;8.87;87.18
6514;BME280;3290;47.716;9.070;2023-02-22T09:08:56;96770.75;;;9.12;87.15
6514;BME280;3290;47.716;9.070;2023-02-22T09:11:21;96782.03;;;9.49;86.03
6514;BME280;3290;47.716;9.070;2023-02-22T09:13:47;96773.16;;;9.19;85.77
6514;BME280;3290;47.716;9.070;2023-02-22T09:16:12;96770.38;;;9.45;86.79
6514;BME280;3290;47.716;9.070;2023-02-22T09:18:37;96772.16;;;9.14;85.80
6514;BME280;3290;47.716;9.070;2023-02-22T09:21:04;96776.25;;;9.04;87.84
6514;BME280;3290;47.716;9.070;2023-02-22T09:23:29;96770.72;;;9.24;86.51
6514;BME280;3290;47.716;9.070;2023-02-22T09:25:55;96769.88;;;9.30;88.11
6514;BME280;3290;47.716;9.070;2023-02-22T09:28:20;96771.78;;;9.41;87.45
6514;BME280;3290;47.716;9.070;2023-02-22T09:30:46;96768.66;;;9.88;84.56
6514;BME280;3290;47.716;9.070;2023-02-22T09:33:14;96761.41;;;10.56;81.39
6514;BME280;3290;47.716;9.070;2023-02-22T09:35:42;96763.03;;;11.04;77.99
6514;BME280;3290;47.716;9.070;2023-02-22T09:38:11;96763.28;;;11.31;76.06
6514;BME280;3290;47.716;9.070;2023-02-22T09:40:53;96758.84;;;11.50;75.49
6514;BME280;3290;47.716;9.070;2023-02-22T09:43:26;96753.63;;;11.43;74.20
6514;BME280;3290;47.716;9.070;2023-02-22T09:48:28;96753.59;;;12.13;70.10
6514;BME280;3290;47.716;9.070;2023-02-22T09:50:58;96745.94;;;11.59;70.98
6514;BME280;3290;47.716;9.070;2023-02-22T09:53:38;96746.13;;;11.18;75.29
6514;BME280;3290;47.716;9.070;2023-02-22T09:56:08;96750.72;;;10.57;77.15
6514;BME280;3290;47.716;9.070;2023-02-22T09:58:40;96744.28;;;10.53;78.65
6514;BME280;3290;47.716;9.070;2023-02-22T10:01:27;96741.38;;;11.26;76.22
6514;BME280;3290;47.716;9.070;2023-02-22T10:06:28;96742.25;;;10.73;76.13
6514;BME280;3290;47.716;9.070;2023-02-22T10:08:57;96734.94;;;11.40;75.69
6514;BME280;3290;47.716;9.070;2023-02-22T10:16:59;96734.31;;;13.91;64.98
6514;BME280;3290;47.716;9.070;2023-02-22T10:30:49;96717.31;;;13.38;63.37
6514;BME280;3290;47.716;9.070;2023-02-22T10:33:26;96718.41;;;13.26;64.36
6514;BME280;3290;47.716;9.070;2023-02-22T10:35:54;96716.13;;;14.60;59.48
6514;BME280;3290;47.716;9.070;2023-02-22T10:38:24;96718.63;;;14.50;59.30
6514;BME280;3290;47.716;9.070;2023-02-22T10:40:54;96718.44;;;13.86;62.83
6514;BME280;3290;47.716;9.070;2023-02-22T10:43:21;96708.81;;;14.45;62.12
6514;BME280;3290;47.716;9.070;2023-02-22T10:45:50;96709.22;;;14.96;59.24
6514;BME280;3290;47.716;9.070;2023-02-22T10:48:18;96707.84;;;15.36;58.27
6514;BME280;3290;47.716;9.070;2023-02-22T10:50:46;96698.41;;;15.71;56.21
6514;BME280;3290;47.716;9.070;2023-02-22T10:53:12;96706.19;;;15.57;56.01
6514;BME280;3290;47.716;9.070;2023-02-22T10:59:08;96705.00;;;15.43;54.64
6514;BME280;3290;47.716;9.070;2023-02-22T11:01:37;96694.88;;;15.92;54.18
6514;BME280;3290;47.716;9.070;2023-02-22T11:04:22;96689.06;;;16.72;52.04
6514;BME280;3290;47.716;9.070;2023-02-22T11:07:18;96682.97;;;16.67;51.74
6514;BME280;3290;47.716;9.070;2023-02-22T11:09:47;96684.59;;;17.48;49.25
6514;BME280;3290;47.716;9.070;2023-02-22T11:12:20;96675.84;;;16.72;49.04
6514;BME280;3290;47.716;9.070;2023-02-22T11:14:46;96678.31;;;16.42;50.84
6514;BME280;3290;47.716;9.070;2023-02-22T11:17:17;96675.03;;;15.90;52.42
6514;BME280;3290;47.716;9.070;2023-02-22T11:19:47;96663.56;;;15.17;54.67
6514;BME280;3290;47.716;9.070;2023-02-22T11:22:21;96665.63;;;15.15;55.22
6514;BME280;3290;47.716;9.070;2023-02-22T11:24:52;96656.13;;;16.07;54.86
6514;BME280;3290;47.716;9.070;2023-02-22T11:30:25;96652.28;;;17.66;48.08
6514;BME280;3290;47.716;9.070;2023-02-22T11:38:09;96643.22;;;17.27;44.31
6514;BME280;3290;47.716;9.070;2023-02-22T11:40:34;96638.47;;;16.54;46.20
6514;BME280;3290;47.716;9.070;2023-02-22T11:43:08;96632.13;;;17.70;44.79
6514;BME280;3290;47.716;9.070;2023-02-22T11:45:37;96626.53;;;17.32;45.03
6514;BME280;3290;47.716;9.070;2023-02-22T11:48:06;96630.88;;;16.77;46.31
6514;BME280;3290;47.716;9.070;2023-02-22T12:01:38;96613.47;;;18.44;43.31
6514;BME280;3290;47.716;9.070;2023-02-22T12:04:22;96601.78;;;18.50;43.47
6514;BME280;3290;47.716;9.070;2023-02-22T12:07:37;96607.13;;;18.30;43.34
6514;BME280;3290;47.716;9.070;2023-02-22T12:13:07;96601.28;;;19.06;43.55
6514;BME280;3290;47.716;9.070;2023-02-22T12:18:29;96593.06;;;19.73;41.48
6514;BME280;3290;47.716;9.070;2023-02-22T12:21:02;96589.25;;;19.18;43.49
6514;BME280;3290;47.716;9.070;2023-02-22T12:23:44;96586.91;;;18.49;44.69
6514;BME280;3290;47.716;9.070;2023-02-22T12:26:35;96585.97;;;18.01;47.41
6514;BME280;3290;47.716;9.070;2023-02-22T12:36:42;96580.66;;;18.15;44.84
6514;BME280;3290;47.716;9.070;2023-02-22T12:41:50;96572.38;;;18.94;43.96
6514;BME280;3290;47.716;9.070;2023-02-22T12:46:50;96573.75;;;18.19;45.23
6514;BME280;3290;47.716;9.070;2023-02-22T12:49:37;96572.00;;;17.56;45.82
6514;BME280;3290;47.716;9.070;2023-02-22T12:52:22;96570.59;;;18.17;45.68
6514;BME280;3290;47.716;9.070;2023-02-22T13:00:40;96568.75;;;18.13;45.86
6514;BME280;3290;47.716;9.070;2023-02-22T13:05:47;96566.41;;;17.82;46.37
6514;BME280;3290;47.716;9.070;2023-02-22T13:14:31;96559.03;;;17.34;48.01
6514;BME280;3290;47.716;9.070;2023-02-22T13:20:11;96554.16;;;16.92;49.62
6514;BME280;3290;47.716;9.070;2023-02-22T13:23:02;96550.19;;;16.84;50.02
6514;BME280;3290;47.716;9.070;2023-02-22T13:34:18;96540.19;;;18.58;46.29
6514;BME280;3290;47.716;9.070;2023-02-22T13:37:05;96534.97;;;18.38;46.63
6514;BME280;3290;47.716;9.070;2023-02-22T13:45:50;96522.78;;;19.23;44.91
6514;BME280;3290;47.716;9.070;2023-02-22T13:51:22;96529.25;;;17.92;48.59
6514;BME280;3290;47.716;9.070;2023-02-22T13:54:00;96529.31;;;17.67;49.52
6514;BME280;3290;47.716;9.070;2023-02-22T13:56:27;96521.88;;;17.84;49.38
6514;BME280;3290;47.716;9.070;2023-02-22T13:58:58;96516.44;;;18.23;48.85
6514;BME280;3290;47.716;9.070;2023-02-22T14:01:46;96529.34;;;17.42;50.20
6514;BME280;3290;47.716;9.070;2023-02-22T14:04:37;96523.50;;;17.45;50.56
6514;BME280;3290;47.716;9.070;2023-02-22T14:07:44;96523.47;;;17.70;50.36
6514;BME280;3290;47.716;9.070;2023-02-22T14:09:57;96523.53;;;17.55;51.58
6514;BME280;3290;47.716;9.070;2023-02-22T14:17:35;96529.88;;;17.54;50.57
6514;BME280;3290;47.716;9.070;2023-02-22T14:20:18;96513.09;;;16.65;51.85
6514;BME280;3290;47.716;9.070;2023-02-22T14:22:49;96522.78;;;16.30;53.78
6514;BME280;3290;47.716;9.070;2023-02-22T14:25:40;96517.88;;;16.02;55.65
6514;BME280;3290;47.716;9.070;2023-02-22T14:28:34;96524.00;;;16.12;56.37
6514;BME280;3290;47.716;9.070;2023-02-22T14:31:08;96524.38;;;16.31;55.12
6514;BME280;3290;47.716;9.070;2023-02-22T14:36:28;96522.19;;;16.18;55.26
6514;BME280;3290;47.716;9.070;2023-02-22T14:38:59;96516.09;;;16.12;55.22
6514;BME280;3290;47.716;9.070;2023-02-22T14:41:28;96518.69;;;16.07;55.43
6514;BME280;3290;47.716;9.070;2023-02-22T14:43:56;96516.03;;;16.02;55.77
6514;BME280;3290;47.716;9.070;2023-02-22T14:46:26;96515.91;;;16.29;55.50
6514;BME280;3290;47.716;9.070;2023-02-22T14:48:58;96516.16;;;15.76;56.63
6514;BME280;3290;47.716;9.070;2023-02-22T14:51:28;96519.97;;;15.95;56.99
6514;BME280;3290;47.716;9.070;2023-02-22T14:54:04;96521.66;;;16.16;55.94
6514;BME280;3290;47.716;9.070;2023-02-22T14:56:50;96523.25;;;16.17;55.31
6514;BME280;3290;47.716;9.070;2023-02-22T14:59:23;96516.84;;;16.03;55.95
6514;BME280;3290;47.716;9.070;2023-02-22T15:02:03;96523.84;;;16.34;55.46
6514;BME280;3290;47.716;9.070;2023-02-22T15:04:29;96518.38;;;15.94;56.65
6514;BME280;3290;47.716;9.070;2023-02-22T15:06:57;96514.28;;;15.72;57.66
6514;BME280;3290;47.716;9.070;2023-02-22T15:09:26;96509.06;;;15.87;57.31
6514;BME280;3290;47.716;9.070;2023-02-22T15:14:28;96518.16;;;15.55;58.54
6514;BME280;3290;47.716;9.070;2023-02-22T15:16:56;96510.94;;;15.86;58.51
6514;BME280;3290;47.716;9.070;2023-02-22T15:19:26;96516.41;;;15.70;58.53
6514;BME280;3290;47.716;9.070;2023-02-22T15:21:54;96520.31;;;16.18;57.27
6514;BME280;3290;47.716;9.070;2023-02-22T15:24:31;96523.31;;;16.32;56.17
6514;BME280;3290;47.716;9.070;2023-02-22T15:27:06;96520.41;;;16.28;56.87
6514;BME280;3290;47.716;9.070;2023-02-22T15:29:35;96517.84;;;15.97;56.93
6514;BME280;3290;47.716;9.070;2023-02-22T15:32:01;96524.53;;;16.14;56.96
6514;BME280;3290;47.716;9.070;2023-02-22T15:34:41;96522.53;;;15.85;57.69
6514;BME280;3290;47.716;9.070;2023-02-22T15:37:24;96521.38;;;15.62;59.40
6514;BME280;3290;47.716;9.070;2023-02-22T15:39:50;96519.88;;;15.75;58.88
6514;BME280;3290;47.716;9.070;2023-02-22T15:42:24;96521.41;;;15.66;58.75
6514;BME280;3290;47.716;9.070;2023-02-22T15:44:52;96530.81;;;15.53;59.42
6514;BME280;3290;47.716;9.070;2023-02-22T15:47:23;96529.28;;;15.25;60.46
6514;BME280;3290;47.716;9.070;2023-02-22T15:52:51;96532.31;;;15.13;62.21
6514;BME280;3290;47.716;9.070;2023-02-22T15:55:20;96535.03;;;14.91;63.40
6514;BME280;3290;47.716;9.070;2023-02-22T15:57:48;96533.59;;;14.79;64.16